Terminal Aerodrome Forecast
Issued by NWS Missoula, MT

Current Version | Previous Version | Text Only | Print | Product List | Glossary On
Versions: 1 2 3 4 5 6 7 8 9 10 11 12 13 14 15 16 17 18 19 20 21
000
FTUS45 KMSO 201736
TAFGPI
TAF
KGPI 201736Z 2018/2118 00000KT 3SM BR SCT001 BKN020
     FM201900 VRB04KT 6SM BR OVC050
     FM202300 16006KT P6SM VCSH OVC040
     FM210400 18004KT 6SM -SNRA OVC030=

USA.gov is the U.S. government's official web portal to all federal, state and local government web resources and services.